sensor_id;sensor_type;location;lat;lon;timestamp;P1;durP1;ratioP1;P2;durP2;ratioP2
17631;SDS011;8934;51.194;17.150;2023-07-29T00:01:33;6.10;;;4.05;;
17631;SDS011;8934;51.194;17.150;2023-07-29T00:04:21;7.07;;;4.85;;
17631;SDS011;8934;51.194;17.150;2023-07-29T00:07:09;8.10;;;5.43;;
17631;SDS011;8934;51.194;17.150;2023-07-29T00:09:56;8.57;;;5.90;;
17631;SDS011;8934;51.194;17.150;2023-07-29T00:12:44;6.53;;;5.03;;
17631;SDS011;8934;51.194;17.150;2023-07-29T00:15:31;6.28;;;4.65;;
17631;SDS011;8934;51.194;17.150;2023-07-29T00:18:21;7.32;;;4.63;;
17631;SDS011;8934;51.194;17.150;2023-07-29T00:21:09;7.68;;;4.55;;
17631;SDS011;8934;51.194;17.150;2023-07-29T00:23:56;5.57;;;3.63;;
17631;SDS011;8934;51.194;17.150;2023-07-29T00:26:44;4.55;;;3.42;;
17631;SDS011;8934;51.194;17.150;2023-07-29T00:29:32;6.45;;;4.30;;
17631;SDS011;8934;51.194;17.150;2023-07-29T00:32:19;4.70;;;3.40;;
17631;SDS011;8934;51.194;17.150;2023-07-29T00:35:09;3.75;;;3.45;;
17631;SDS011;8934;51.194;17.150;2023-07-29T00:37:56;4.18;;;3.42;;
17631;SDS011;8934;51.194;17.150;2023-07-29T00:40:45;4.28;;;3.58;;
17631;SDS011;8934;51.194;17.150;2023-07-29T00:43:33;5.50;;;3.10;;
17631;SDS011;8934;51.194;17.150;2023-07-29T00:46:21;4.60;;;3.30;;
17631;SDS011;8934;51.194;17.150;2023-07-29T00:49:10;5.07;;;3.00;;
17631;SDS011;8934;51.194;17.150;2023-07-29T00:51:59;4.68;;;3.33;;
17631;SDS011;8934;51.194;17.150;2023-07-29T00:54:47;4.15;;;2.80;;
17631;SDS011;8934;51.194;17.150;2023-07-29T00:57:36;4.78;;;3.10;;
17631;SDS011;8934;51.194;17.150;2023-07-29T01:00:24;3.97;;;3.00;;
17631;SDS011;8934;51.194;17.150;2023-07-29T01:03:11;3.90;;;3.20;;
17631;SDS011;8934;51.194;17.150;2023-07-29T01:06:04;3.63;;;3.03;;
17631;SDS011;8934;51.194;17.150;2023-07-29T01:09:01;7.20;;;4.10;;
17631;SDS011;8934;51.194;17.150;2023-07-29T01:11:52;4.57;;;3.40;;
17631;SDS011;8934;51.194;17.150;2023-07-29T01:14:51;7.07;;;3.47;;
17631;SDS011;8934;51.194;17.150;2023-07-29T01:17:46;5.65;;;3.22;;
17631;SDS011;8934;51.194;17.150;2023-07-29T01:20:40;5.57;;;3.35;;
17631;SDS011;8934;51.194;17.150;2023-07-29T01:23:33;3.63;;;3.08;;
17631;SDS011;8934;51.194;17.150;2023-07-29T01:26:21;4.00;;;3.42;;
17631;SDS011;8934;51.194;17.150;2023-07-29T01:29:09;5.20;;;4.07;;
17631;SDS011;8934;51.194;17.150;2023-07-29T01:31:58;8.75;;;4.25;;
17631;SDS011;8934;51.194;17.150;2023-07-29T01:34:53;6.95;;;3.63;;
17631;SDS011;8934;51.194;17.150;2023-07-29T01:37:47;5.40;;;3.65;;
17631;SDS011;8934;51.194;17.150;2023-07-29T01:40:40;5.47;;;3.97;;
17631;SDS011;8934;51.194;17.150;2023-07-29T01:43:29;5.28;;;3.75;;
17631;SDS011;8934;51.194;17.150;2023-07-29T01:46:18;4.80;;;3.72;;
17631;SDS011;8934;51.194;17.150;2023-07-29T01:49:06;7.35;;;3.75;;
17631;SDS011;8934;51.194;17.150;2023-07-29T01:51:54;4.63;;;3.80;;
17631;SDS011;8934;51.194;17.150;2023-07-29T01:54:41;4.30;;;3.40;;
17631;SDS011;8934;51.194;17.150;2023-07-29T01:57:31;8.68;;;4.03;;
17631;SDS011;8934;51.194;17.150;2023-07-29T02:00:18;7.50;;;4.03;;
17631;SDS011;8934;51.194;17.150;2023-07-29T02:03:06;3.55;;;3.10;;
17631;SDS011;8934;51.194;17.150;2023-07-29T02:05:54;7.38;;;3.85;;
17631;SDS011;8934;51.194;17.150;2023-07-29T02:08:42;6.25;;;3.60;;
17631;SDS011;8934;51.194;17.150;2023-07-29T02:11:29;5.85;;;3.67;;
17631;SDS011;8934;51.194;17.150;2023-07-29T02:14:18;4.78;;;3.90;;
17631;SDS011;8934;51.194;17.150;2023-07-29T02:17:06;5.72;;;3.95;;
17631;SDS011;8934;51.194;17.150;2023-07-29T02:19:54;4.55;;;3.92;;
17631;SDS011;8934;51.194;17.150;2023-07-29T02:22:42;5.75;;;3.80;;
17631;SDS011;8934;51.194;17.150;2023-07-29T02:25:29;6.53;;;4.10;;
17631;SDS011;8934;51.194;17.150;2023-07-29T02:28:17;6.72;;;4.55;;
17631;SDS011;8934;51.194;17.150;2023-07-29T02:31:12;5.75;;;4.40;;
17631;SDS011;8934;51.194;17.150;2023-07-29T02:34:03;7.40;;;4.05;;
17631;SDS011;8934;51.194;17.150;2023-07-29T02:36:51;5.63;;;5.03;;
17631;SDS011;8934;51.194;17.150;2023-07-29T02:39:39;9.00;;;5.38;;
17631;SDS011;8934;51.194;17.150;2023-07-29T02:42:26;6.97;;;4.78;;
17631;SDS011;8934;51.194;17.150;2023-07-29T02:45:14;8.00;;;6.03;;
17631;SDS011;8934;51.194;17.150;2023-07-29T02:48:03;9.98;;;6.00;;
17631;SDS011;8934;51.194;17.150;2023-07-29T02:50:51;5.95;;;4.63;;
17631;SDS011;8934;51.194;17.150;2023-07-29T02:53:38;8.23;;;4.72;;
17631;SDS011;8934;51.194;17.150;2023-07-29T02:56:26;6.45;;;5.10;;
17631;SDS011;8934;51.194;17.150;2023-07-29T02:59:14;7.85;;;5.05;;
17631;SDS011;8934;51.194;17.150;2023-07-29T03:02:01;7.93;;;5.00;;
17631;SDS011;8934;51.194;17.150;2023-07-29T03:04:50;7.70;;;4.97;;
17631;SDS011;8934;51.194;17.150;2023-07-29T03:07:38;7.30;;;5.15;;
17631;SDS011;8934;51.194;17.150;2023-07-29T03:10:26;6.70;;;4.78;;
17631;SDS011;8934;51.194;17.150;2023-07-29T03:13:14;7.35;;;5.03;;
17631;SDS011;8934;51.194;17.150;2023-07-29T03:16:06;7.60;;;4.70;;
17631;SDS011;8934;51.194;17.150;2023-07-29T03:18:56;7.35;;;4.78;;
17631;SDS011;8934;51.194;17.150;2023-07-29T03:21:48;9.18;;;4.88;;
17631;SDS011;8934;51.194;17.150;2023-07-29T03:24:36;6.03;;;4.65;;
17631;SDS011;8934;51.194;17.150;2023-07-29T03:27:24;6.60;;;4.72;;
17631;SDS011;8934;51.194;17.150;2023-07-29T03:30:11;7.85;;;5.63;;
17631;SDS011;8934;51.194;17.150;2023-07-29T03:32:59;8.10;;;4.65;;
17631;SDS011;8934;51.194;17.150;2023-07-29T03:35:47;9.68;;;6.00;;
17631;SDS011;8934;51.194;17.150;2023-07-29T03:38:36;5.38;;;4.65;;
17631;SDS011;8934;51.194;17.150;2023-07-29T03:41:27;6.20;;;4.60;;
17631;SDS011;8934;51.194;17.150;2023-07-29T03:44:15;7.13;;;5.00;;
17631;SDS011;8934;51.194;17.150;2023-07-29T03:47:04;7.93;;;5.25;;
17631;SDS011;8934;51.194;17.150;2023-07-29T03:49:52;6.22;;;4.70;;
17631;SDS011;8934;51.194;17.150;2023-07-29T03:52:41;12.35;;;5.57;;
17631;SDS011;8934;51.194;17.150;2023-07-29T03:55:30;5.65;;;4.72;;
17631;SDS011;8934;51.194;17.150;2023-07-29T03:58:18;14.15;;;6.05;;
17631;SDS011;8934;51.194;17.150;2023-07-29T04:01:06;15.35;;;5.70;;
17631;SDS011;8934;51.194;17.150;2023-07-29T04:03:54;9.13;;;5.68;;
17631;SDS011;8934;51.194;17.150;2023-07-29T04:06:42;10.23;;;5.22;;
17631;SDS011;8934;51.194;17.150;2023-07-29T04:09:30;13.18;;;7.18;;
17631;SDS011;8934;51.194;17.150;2023-07-29T04:12:19;12.82;;;7.30;;
17631;SDS011;8934;51.194;17.150;2023-07-29T04:15:07;9.55;;;6.88;;
17631;SDS011;8934;51.194;17.150;2023-07-29T04:17:56;13.20;;;6.80;;
17631;SDS011;8934;51.194;17.150;2023-07-29T04:20:44;13.02;;;6.80;;
17631;SDS011;8934;51.194;17.150;2023-07-29T04:23:31;9.52;;;6.43;;
17631;SDS011;8934;51.194;17.150;2023-07-29T04:26:19;8.55;;;6.55;;
17631;SDS011;8934;51.194;17.150;2023-07-29T04:29:08;13.98;;;7.05;;
17631;SDS011;8934;51.194;17.150;2023-07-29T04:31:56;7.57;;;5.78;;
17631;SDS011;8934;51.194;17.150;2023-07-29T04:34:44;9.50;;;8.10;;
17631;SDS011;8934;51.194;17.150;2023-07-29T04:37:32;11.35;;;8.77;;
17631;SDS011;8934;51.194;17.150;2023-07-29T04:40:19;10.88;;;8.65;;
17631;SDS011;8934;51.194;17.150;2023-07-29T04:43:08;8.63;;;7.82;;
17631;SDS011;8934;51.194;17.150;2023-07-29T04:45:57;9.48;;;8.45;;
17631;SDS011;8934;51.194;17.150;2023-07-29T04:48:45;11.38;;;9.07;;
17631;SDS011;8934;51.194;17.150;2023-07-29T04:51:33;11.23;;;9.20;;
17631;SDS011;8934;51.194;17.150;2023-07-29T04:54:21;11.23;;;10.07;;
17631;SDS011;8934;51.194;17.150;2023-07-29T04:57:08;10.73;;;9.38;;
17631;SDS011;8934;51.194;17.150;2023-07-29T04:59:56;11.73;;;10.52;;
17631;SDS011;8934;51.194;17.150;2023-07-29T05:02:45;13.10;;;10.80;;
17631;SDS011;8934;51.194;17.150;2023-07-29T05:05:32;11.93;;;10.77;;
17631;SDS011;8934;51.194;17.150;2023-07-29T05:08:21;12.45;;;10.45;;
17631;SDS011;8934;51.194;17.150;2023-07-29T05:11:10;14.68;;;11.13;;
17631;SDS011;8934;51.194;17.150;2023-07-29T05:13:58;13.57;;;11.18;;
17631;SDS011;8934;51.194;17.150;2023-07-29T05:16:45;12.68;;;11.25;;
17631;SDS011;8934;51.194;17.150;2023-07-29T05:19:35;13.30;;;11.40;;
17631;SDS011;8934;51.194;17.150;2023-07-29T05:22:22;12.90;;;11.60;;
17631;SDS011;8934;51.194;17.150;2023-07-29T05:25:10;13.38;;;11.70;;
17631;SDS011;8934;51.194;17.150;2023-07-29T05:27:59;12.20;;;10.80;;
17631;SDS011;8934;51.194;17.150;2023-07-29T05:30:48;13.00;;;10.82;;
17631;SDS011;8934;51.194;17.150;2023-07-29T05:33:35;11.63;;;10.43;;
17631;SDS011;8934;51.194;17.150;2023-07-29T05:36:26;9.85;;;8.82;;
17631;SDS011;8934;51.194;17.150;2023-07-29T05:39:13;10.40;;;8.50;;
17631;SDS011;8934;51.194;17.150;2023-07-29T05:42:01;9.73;;;8.57;;
17631;SDS011;8934;51.194;17.150;2023-07-29T05:44:49;9.40;;;8.13;;
17631;SDS011;8934;51.194;17.150;2023-07-29T05:47:38;10.30;;;7.40;;
17631;SDS011;8934;51.194;17.150;2023-07-29T05:50:26;8.10;;;7.20;;
17631;SDS011;8934;51.194;17.150;2023-07-29T05:53:15;7.63;;;6.82;;
17631;SDS011;8934;51.194;17.150;2023-07-29T05:56:02;8.55;;;7.47;;
17631;SDS011;8934;51.194;17.150;2023-07-29T05:58:50;9.45;;;7.03;;
17631;SDS011;8934;51.194;17.150;2023-07-29T06:01:38;8.77;;;7.90;;
17631;SDS011;8934;51.194;17.150;2023-07-29T06:04:28;8.23;;;6.68;;
17631;SDS011;8934;51.194;17.150;2023-07-29T06:07:16;7.63;;;6.25;;
17631;SDS011;8934;51.194;17.150;2023-07-29T06:10:05;6.72;;;6.10;;
17631;SDS011;8934;51.194;17.150;2023-07-29T06:12:53;6.78;;;6.18;;
17631;SDS011;8934;51.194;17.150;2023-07-29T06:15:41;7.47;;;6.13;;
17631;SDS011;8934;51.194;17.150;2023-07-29T06:18:29;7.47;;;6.07;;
17631;SDS011;8934;51.194;17.150;2023-07-29T06:21:17;5.93;;;4.45;;
17631;SDS011;8934;51.194;17.150;2023-07-29T06:24:05;4.45;;;4.00;;
17631;SDS011;8934;51.194;17.150;2023-07-29T06:26:57;4.70;;;3.65;;
17631;SDS011;8934;51.194;17.150;2023-07-29T06:29:44;5.07;;;3.40;;
17631;SDS011;8934;51.194;17.150;2023-07-29T06:32:33;5.03;;;3.33;;
17631;SDS011;8934;51.194;17.150;2023-07-29T06:35:21;3.30;;;3.00;;
17631;SDS011;8934;51.194;17.150;2023-07-29T06:38:09;3.42;;;3.13;;
17631;SDS011;8934;51.194;17.150;2023-07-29T06:40:57;2.90;;;2.20;;
17631;SDS011;8934;51.194;17.150;2023-07-29T06:43:46;3.15;;;2.63;;
17631;SDS011;8934;51.194;17.150;2023-07-29T06:46:33;3.42;;;2.60;;
17631;SDS011;8934;51.194;17.150;2023-07-29T06:49:22;4.90;;;2.40;;
17631;SDS011;8934;51.194;17.150;2023-07-29T06:52:10;2.47;;;1.98;;
17631;SDS011;8934;51.194;17.150;2023-07-29T06:54:58;2.60;;;2.40;;
17631;SDS011;8934;51.194;17.150;2023-07-29T06:57:46;2.40;;;2.20;;
17631;SDS011;8934;51.194;17.150;2023-07-29T07:00:35;2.80;;;2.13;;
17631;SDS011;8934;51.194;17.150;2023-07-29T07:03:23;2.50;;;2.22;;
17631;SDS011;8934;51.194;17.150;2023-07-29T07:06:11;2.30;;;2.10;;
17631;SDS011;8934;51.194;17.150;2023-07-29T07:08:58;2.88;;;2.67;;
17631;SDS011;8934;51.194;17.150;2023-07-29T07:11:46;3.80;;;2.60;;
17631;SDS011;8934;51.194;17.150;2023-07-29T07:14:33;2.47;;;1.83;;
17631;SDS011;8934;51.194;17.150;2023-07-29T07:17:22;2.28;;;2.08;;
17631;SDS011;8934;51.194;17.150;2023-07-29T07:20:11;2.78;;;1.85;;
17631;SDS011;8934;51.194;17.150;2023-07-29T07:22:58;3.15;;;2.00;;
17631;SDS011;8934;51.194;17.150;2023-07-29T07:25:46;2.42;;;1.80;;
17631;SDS011;8934;51.194;17.150;2023-07-29T07:28:33;3.28;;;2.25;;
17631;SDS011;8934;51.194;17.150;2023-07-29T07:31:21;3.05;;;2.00;;
17631;SDS011;8934;51.194;17.150;2023-07-29T07:34:11;2.00;;;1.80;;
17631;SDS011;8934;51.194;17.150;2023-07-29T07:37:01;2.33;;;2.13;;
17631;SDS011;8934;51.194;17.150;2023-07-29T07:39:51;2.28;;;1.90;;
17631;SDS011;8934;51.194;17.150;2023-07-29T07:42:42;2.28;;;2.10;;
17631;SDS011;8934;51.194;17.150;2023-07-29T07:45:31;4.47;;;1.92;;
17631;SDS011;8934;51.194;17.150;2023-07-29T07:48:21;3.42;;;2.03;;
17631;SDS011;8934;51.194;17.150;2023-07-29T07:51:15;3.05;;;1.60;;
17631;SDS011;8934;51.194;17.150;2023-07-29T07:54:02;2.38;;;1.75;;
17631;SDS011;8934;51.194;17.150;2023-07-29T07:56:57;3.05;;;2.50;;
17631;SDS011;8934;51.194;17.150;2023-07-29T07:59:45;4.38;;;3.22;;
17631;SDS011;8934;51.194;17.150;2023-07-29T08:02:33;4.18;;;2.53;;
17631;SDS011;8934;51.194;17.150;2023-07-29T08:05:25;2.03;;;1.83;;
17631;SDS011;8934;51.194;17.150;2023-07-29T08:08:17;1.90;;;1.80;;
17631;SDS011;8934;51.194;17.150;2023-07-29T08:11:06;1.75;;;1.63;;
17631;SDS011;8934;51.194;17.150;2023-07-29T08:13:54;4.30;;;2.42;;
17631;SDS011;8934;51.194;17.150;2023-07-29T08:16:42;3.60;;;1.67;;
17631;SDS011;8934;51.194;17.150;2023-07-29T08:19:30;1.65;;;1.40;;
17631;SDS011;8934;51.194;17.150;2023-07-29T08:22:21;2.60;;;1.40;;
17631;SDS011;8934;51.194;17.150;2023-07-29T08:25:10;4.50;;;1.60;;
17631;SDS011;8934;51.194;17.150;2023-07-29T08:27:58;1.30;;;1.00;;
17631;SDS011;8934;51.194;17.150;2023-07-29T08:30:49;2.13;;;1.65;;
17631;SDS011;8934;51.194;17.150;2023-07-29T08:33:37;2.90;;;1.80;;
17631;SDS011;8934;51.194;17.150;2023-07-29T08:36:25;1.63;;;1.52;;
17631;SDS011;8934;51.194;17.150;2023-07-29T08:39:12;2.38;;;1.60;;
17631;SDS011;8934;51.194;17.150;2023-07-29T08:42:02;2.47;;;1.70;;
17631;SDS011;8934;51.194;17.150;2023-07-29T08:44:56;1.60;;;1.50;;
17631;SDS011;8934;51.194;17.150;2023-07-29T08:47:46;1.60;;;1.50;;
17631;SDS011;8934;51.194;17.150;2023-07-29T08:50:38;2.67;;;1.60;;
17631;SDS011;8934;51.194;17.150;2023-07-29T08:53:26;2.00;;;1.60;;
17631;SDS011;8934;51.194;17.150;2023-07-29T08:56:15;1.63;;;1.02;;
17631;SDS011;8934;51.194;17.150;2023-07-29T08:59:04;2.67;;;1.25;;
17631;SDS011;8934;51.194;17.150;2023-07-29T09:01:52;3.22;;;1.38;;
17631;SDS011;8934;51.194;17.150;2023-07-29T09:04:43;1.95;;;1.35;;
17631;SDS011;8934;51.194;17.150;2023-07-29T09:07:30;2.10;;;1.27;;
17631;SDS011;8934;51.194;17.150;2023-07-29T09:10:21;2.13;;;1.33;;
17631;SDS011;8934;51.194;17.150;2023-07-29T09:13:10;1.48;;;1.38;;
17631;SDS011;8934;51.194;17.150;2023-07-29T09:15:59;1.20;;;1.10;;
17631;SDS011;8934;51.194;17.150;2023-07-29T09:18:47;1.67;;;1.40;;
17631;SDS011;8934;51.194;17.150;2023-07-29T09:21:38;2.70;;;1.30;;
17631;SDS011;8934;51.194;17.150;2023-07-29T09:24:26;1.33;;;1.23;;
17631;SDS011;8934;51.194;17.150;2023-07-29T09:27:24;1.13;;;1.02;;
17631;SDS011;8934;51.194;17.150;2023-07-29T09:30:15;1.45;;;1.13;;
17631;SDS011;8934;51.194;17.150;2023-07-29T09:33:04;1.65;;;0.98;;
17631;SDS011;8934;51.194;17.150;2023-07-29T09:35:53;1.45;;;1.25;;
17631;SDS011;8934;51.194;17.150;2023-07-29T09:38:41;3.08;;;1.42;;
17631;SDS011;8934;51.194;17.150;2023-07-29T09:41:31;1.20;;;1.10;;
17631;SDS011;8934;51.194;17.150;2023-07-29T09:44:18;1.17;;;1.08;;
17631;SDS011;8934;51.194;17.150;2023-07-29T09:47:06;1.15;;;1.05;;
17631;SDS011;8934;51.194;17.150;2023-07-29T09:49:56;1.08;;;0.98;;
17631;SDS011;8934;51.194;17.150;2023-07-29T09:52:43;2.40;;;1.17;;
17631;SDS011;8934;51.194;17.150;2023-07-29T09:55:32;1.27;;;1.17;;
17631;SDS011;8934;51.194;17.150;2023-07-29T09:58:25;0.98;;;0.90;;
17631;SDS011;8934;51.194;17.150;2023-07-29T10:01:13;1.27;;;0.77;;
17631;SDS011;8934;51.194;17.150;2023-07-29T10:04:02;0.95;;;0.95;;
17631;SDS011;8934;51.194;17.150;2023-07-29T10:06:52;2.38;;;0.90;;
17631;SDS011;8934;51.194;17.150;2023-07-29T10:09:41;2.40;;;1.02;;
17631;SDS011;8934;51.194;17.150;2023-07-29T10:12:30;1.25;;;1.15;;
17631;SDS011;8934;51.194;17.150;2023-07-29T10:15:18;1.25;;;1.15;;
17631;SDS011;8934;51.194;17.150;2023-07-29T10:18:07;1.05;;;0.98;;
17631;SDS011;8934;51.194;17.150;2023-07-29T10:20:56;2.38;;;1.00;;
17631;SDS011;8934;51.194;17.150;2023-07-29T10:23:47;1.45;;;1.08;;
17631;SDS011;8934;51.194;17.150;2023-07-29T10:26:36;1.42;;;0.90;;
17631;SDS011;8934;51.194;17.150;2023-07-29T10:29:31;0.80;;;0.80;;
17631;SDS011;8934;51.194;17.150;2023-07-29T10:32:20;1.95;;;0.90;;
17631;SDS011;8934;51.194;17.150;2023-07-29T10:35:12;1.48;;;0.90;;
17631;SDS011;8934;51.194;17.150;2023-07-29T10:38:00;2.08;;;1.00;;
17631;SDS011;8934;51.194;17.150;2023-07-29T10:40:52;1.48;;;1.38;;
17631;SDS011;8934;51.194;17.150;2023-07-29T10:43:43;1.10;;;1.00;;
17631;SDS011;8934;51.194;17.150;2023-07-29T10:46:30;1.73;;;1.40;;
17631;SDS011;8934;51.194;17.150;2023-07-29T10:49:23;1.33;;;1.23;;
17631;SDS011;8934;51.194;17.150;2023-07-29T10:52:12;3.95;;;1.60;;
17631;SDS011;8934;51.194;17.150;2023-07-29T10:55:01;2.33;;;1.60;;
17631;SDS011;8934;51.194;17.150;2023-07-29T10:57:52;4.53;;;1.90;;
17631;SDS011;8934;51.194;17.150;2023-07-29T11:00:50;2.00;;;1.80;;
17631;SDS011;8934;51.194;17.150;2023-07-29T11:03:38;4.05;;;1.63;;
17631;SDS011;8934;51.194;17.150;2023-07-29T11:06:25;2.25;;;1.70;;
17631;SDS011;8934;51.194;17.150;2023-07-29T11:12:40;4.95;;;1.70;;
17631;SDS011;8934;51.194;17.150;2023-07-29T11:15:33;2.60;;;2.40;;
17631;SDS011;8934;51.194;17.150;2023-07-29T11:18:20;2.40;;;2.20;;
17631;SDS011;8934;51.194;17.150;2023-07-29T11:21:08;2.30;;;2.10;;
17631;SDS011;8934;51.194;17.150;2023-07-29T11:23:56;2.60;;;2.40;;
17631;SDS011;8934;51.194;17.150;2023-07-29T11:26:46;4.78;;;2.17;;
17631;SDS011;8934;51.194;17.150;2023-07-29T11:29:33;3.33;;;2.50;;
17631;SDS011;8934;51.194;17.150;2023-07-29T11:32:22;2.22;;;2.13;;
17631;SDS011;8934;51.194;17.150;2023-07-29T11:35:11;2.95;;;2.40;;
17631;SDS011;8934;51.194;17.150;2023-07-29T11:38:00;2.80;;;2.47;;
17631;SDS011;8934;51.194;17.150;2023-07-29T11:40:55;2.00;;;1.90;;
17631;SDS011;8934;51.194;17.150;2023-07-29T11:43:45;2.33;;;2.10;;
17631;SDS011;8934;51.194;17.150;2023-07-29T11:46:32;2.60;;;2.40;;
17631;SDS011;8934;51.194;17.150;2023-07-29T11:49:24;2.90;;;2.60;;
17631;SDS011;8934;51.194;17.150;2023-07-29T11:52:12;2.30;;;2.10;;
17631;SDS011;8934;51.194;17.150;2023-07-29T11:55:00;2.72;;;2.25;;
17631;SDS011;8934;51.194;17.150;2023-07-29T11:57:50;2.45;;;2.28;;
17631;SDS011;8934;51.194;17.150;2023-07-29T12:00:39;2.35;;;2.15;;
17631;SDS011;8934;51.194;17.150;2023-07-29T12:03:26;2.13;;;2.03;;
17631;SDS011;8934;51.194;17.150;2023-07-29T12:06:16;2.00;;;1.90;;
17631;SDS011;8934;51.194;17.150;2023-07-29T12:09:03;2.25;;;1.80;;
17631;SDS011;8934;51.194;17.150;2023-07-29T12:11:52;2.72;;;2.10;;
17631;SDS011;8934;51.194;17.150;2023-07-29T12:14:43;1.83;;;1.60;;
17631;SDS011;8934;51.194;17.150;2023-07-29T12:17:32;2.28;;;1.65;;
17631;SDS011;8934;51.194;17.150;2023-07-29T12:20:28;2.40;;;1.83;;
17631;SDS011;8934;51.194;17.150;2023-07-29T12:23:18;2.55;;;1.63;;
17631;SDS011;8934;51.194;17.150;2023-07-29T12:26:12;2.73;;;1.50;;
17631;SDS011;8934;51.194;17.150;2023-07-29T12:28:59;1.48;;;1.38;;
17631;SDS011;8934;51.194;17.150;2023-07-29T12:31:58;1.58;;;1.48;;
17631;SDS011;8934;51.194;17.150;2023-07-29T12:34:46;1.30;;;1.20;;
17631;SDS011;8934;51.194;17.150;2023-07-29T12:37:34;1.15;;;1.10;;
17631;SDS011;8934;51.194;17.150;2023-07-29T12:40:23;1.20;;;1.10;;
17631;SDS011;8934;51.194;17.150;2023-07-29T12:43:12;2.20;;;1.15;;
17631;SDS011;8934;51.194;17.150;2023-07-29T12:46:00;1.48;;;1.10;;
17631;SDS011;8934;51.194;17.150;2023-07-29T12:48:48;1.08;;;0.98;;
17631;SDS011;8934;51.194;17.150;2023-07-29T12:51:36;1.60;;;0.98;;
17631;SDS011;8934;51.194;17.150;2023-07-29T12:54:24;3.10;;;1.10;;
17631;SDS011;8934;51.194;17.150;2023-07-29T12:57:13;1.20;;;1.10;;
17631;SDS011;8934;51.194;17.150;2023-07-29T13:00:01;1.20;;;0.80;;
17631;SDS011;8934;51.194;17.150;2023-07-29T13:02:49;1.38;;;0.90;;
17631;SDS011;8934;51.194;17.150;2023-07-29T13:05:37;1.02;;;0.70;;
17631;SDS011;8934;51.194;17.150;2023-07-29T13:08:25;0.93;;;0.90;;
17631;SDS011;8934;51.194;17.150;2023-07-29T13:11:12;1.08;;;0.98;;
17631;SDS011;8934;51.194;17.150;2023-07-29T13:14:02;1.00;;;0.90;;
17631;SDS011;8934;51.194;17.150;2023-07-29T13:16:49;2.60;;;0.95;;
17631;SDS011;8934;51.194;17.150;2023-07-29T13:19:37;0.85;;;0.80;;
17631;SDS011;8934;51.194;17.150;2023-07-29T13:22:24;1.10;;;1.00;;
17631;SDS011;8934;51.194;17.150;2023-07-29T13:25:12;2.10;;;0.90;;
17631;SDS011;8934;51.194;17.150;2023-07-29T13:28:00;0.77;;;0.70;;
17631;SDS011;8934;51.194;17.150;2023-07-29T13:30:49;1.73;;;0.80;;
17631;SDS011;8934;51.194;17.150;2023-07-29T13:33:37;0.90;;;0.77;;
17631;SDS011;8934;51.194;17.150;2023-07-29T13:36:25;1.52;;;0.85;;
17631;SDS011;8934;51.194;17.150;2023-07-29T13:39:13;0.70;;;0.70;;
17631;SDS011;8934;51.194;17.150;2023-07-29T13:42:00;0.85;;;0.80;;
17631;SDS011;8934;51.194;17.150;2023-07-29T13:44:48;1.17;;;1.00;;
17631;SDS011;8934;51.194;17.150;2023-07-29T13:47:37;1.02;;;0.88;;
17631;SDS011;8934;51.194;17.150;2023-07-29T13:50:25;1.35;;;0.90;;
17631;SDS011;8934;51.194;17.150;2023-07-29T13:53:12;1.38;;;0.82;;
17631;SDS011;8934;51.194;17.150;2023-07-29T13:56:00;1.27;;;0.75;;
17631;SDS011;8934;51.194;17.150;2023-07-29T13:58:48;2.35;;;1.00;;
17631;SDS011;8934;51.194;17.150;2023-07-29T14:01:36;0.90;;;0.90;;
17631;SDS011;8934;51.194;17.150;2023-07-29T14:04:25;1.60;;;0.70;;
17631;SDS011;8934;51.194;17.150;2023-07-29T14:07:13;1.48;;;0.82;;
17631;SDS011;8934;51.194;17.150;2023-07-29T14:10:01;1.13;;;0.70;;
17631;SDS011;8934;51.194;17.150;2023-07-29T14:12:49;0.98;;;0.70;;
17631;SDS011;8934;51.194;17.150;2023-07-29T14:15:36;1.65;;;1.20;;
17631;SDS011;8934;51.194;17.150;2023-07-29T14:18:24;0.85;;;0.75;;
17631;SDS011;8934;51.194;17.150;2023-07-29T14:21:13;0.90;;;0.63;;
17631;SDS011;8934;51.194;17.150;2023-07-29T14:24:01;4.55;;;1.48;;
17631;SDS011;8934;51.194;17.150;2023-07-29T14:26:49;0.65;;;0.65;;
17631;SDS011;8934;51.194;17.150;2023-07-29T14:29:37;2.63;;;0.80;;
17631;SDS011;8934;51.194;17.150;2023-07-29T14:32:24;2.08;;;1.00;;
17631;SDS011;8934;51.194;17.150;2023-07-29T14:35:12;1.00;;;0.80;;
17631;SDS011;8934;51.194;17.150;2023-07-29T14:38:01;1.85;;;1.00;;
17631;SDS011;8934;51.194;17.150;2023-07-29T14:40:49;2.63;;;0.80;;
17631;SDS011;8934;51.194;17.150;2023-07-29T14:43:40;0.90;;;0.80;;
17631;SDS011;8934;51.194;17.150;2023-07-29T14:46:28;0.90;;;0.63;;
17631;SDS011;8934;51.194;17.150;2023-07-29T14:49:15;1.10;;;0.75;;
17631;SDS011;8934;51.194;17.150;2023-07-29T14:52:03;1.48;;;0.93;;
17631;SDS011;8934;51.194;17.150;2023-07-29T14:54:53;1.25;;;1.00;;
17631;SDS011;8934;51.194;17.150;2023-07-29T14:57:40;1.30;;;1.00;;
17631;SDS011;8934;51.194;17.150;2023-07-29T15:00:28;1.13;;;1.02;;
17631;SDS011;8934;51.194;17.150;2023-07-29T15:03:16;2.22;;;1.08;;
17631;SDS011;8934;51.194;17.150;2023-07-29T15:06:04;4.53;;;1.08;;
17631;SDS011;8934;51.194;17.150;2023-07-29T15:08:52;1.67;;;1.13;;
17631;SDS011;8934;51.194;17.150;2023-07-29T15:11:41;2.40;;;1.13;;
17631;SDS011;8934;51.194;17.150;2023-07-29T15:14:29;2.10;;;0.95;;
17631;SDS011;8934;51.194;17.150;2023-07-29T15:17:16;0.82;;;0.70;;
17631;SDS011;8934;51.194;17.150;2023-07-29T15:20:05;0.93;;;0.85;;
17631;SDS011;8934;51.194;17.150;2023-07-29T15:22:53;2.08;;;1.13;;
17631;SDS011;8934;51.194;17.150;2023-07-29T15:25:40;2.25;;;1.15;;
17631;SDS011;8934;51.194;17.150;2023-07-29T15:28:29;1.75;;;1.17;;
17631;SDS011;8934;51.194;17.150;2023-07-29T15:31:17;1.35;;;1.00;;
17631;SDS011;8934;51.194;17.150;2023-07-29T15:34:05;1.63;;;1.05;;
17631;SDS011;8934;51.194;17.150;2023-07-29T15:36:53;2.15;;;1.00;;
17631;SDS011;8934;51.194;17.150;2023-07-29T15:39:40;1.15;;;0.95;;
17631;SDS011;8934;51.194;17.150;2023-07-29T15:42:28;1.00;;;0.90;;
17631;SDS011;8934;51.194;17.150;2023-07-29T15:45:17;3.30;;;1.20;;
17631;SDS011;8934;51.194;17.150;2023-07-29T15:48:07;1.10;;;1.00;;
17631;SDS011;8934;51.194;17.150;2023-07-29T15:50:55;3.20;;;1.08;;
17631;SDS011;8934;51.194;17.150;2023-07-29T15:53:42;1.90;;;1.20;;
17631;SDS011;8934;51.194;17.150;2023-07-29T15:56:30;1.92;;;0.98;;
17631;SDS011;8934;51.194;17.150;2023-07-29T15:59:22;2.47;;;1.23;;
17631;SDS011;8934;51.194;17.150;2023-07-29T16:02:13;1.73;;;0.98;;
17631;SDS011;8934;51.194;17.150;2023-07-29T16:05:00;1.60;;;0.98;;
17631;SDS011;8934;51.194;17.150;2023-07-29T16:07:48;1.65;;;1.20;;
17631;SDS011;8934;51.194;17.150;2023-07-29T16:10:36;1.50;;;1.40;;
17631;SDS011;8934;51.194;17.150;2023-07-29T16:13:24;1.42;;;1.30;;
17631;SDS011;8934;51.194;17.150;2023-07-29T16:16:11;2.22;;;1.38;;
17631;SDS011;8934;51.194;17.150;2023-07-29T16:19:01;2.78;;;1.00;;
17631;SDS011;8934;51.194;17.150;2023-07-29T16:21:49;1.13;;;1.00;;
17631;SDS011;8934;51.194;17.150;2023-07-29T16:24:37;1.40;;;1.30;;
17631;SDS011;8934;51.194;17.150;2023-07-29T16:27:24;1.58;;;1.30;;
17631;SDS011;8934;51.194;17.150;2023-07-29T16:30:13;2.95;;;1.20;;
17631;SDS011;8934;51.194;17.150;2023-07-29T16:33:01;1.33;;;1.00;;
17631;SDS011;8934;51.194;17.150;2023-07-29T16:35:50;3.42;;;1.20;;
17631;SDS011;8934;51.194;17.150;2023-07-29T16:38:38;1.20;;;1.10;;
17631;SDS011;8934;51.194;17.150;2023-07-29T16:41:25;2.70;;;1.10;;
17631;SDS011;8934;51.194;17.150;2023-07-29T16:44:33;4.43;;;1.08;;
17631;SDS011;8934;51.194;17.150;2023-07-29T16:47:20;2.88;;;1.10;;
17631;SDS011;8934;51.194;17.150;2023-07-29T16:50:09;2.92;;;1.02;;
17631;SDS011;8934;51.194;17.150;2023-07-29T16:52:58;2.70;;;1.10;;
17631;SDS011;8934;51.194;17.150;2023-07-29T16:55:46;2.13;;;1.00;;
17631;SDS011;8934;51.194;17.150;2023-07-29T16:58:33;1.30;;;1.00;;